Time;durP1;ratioP1;P1;durP2;ratioP2;P2;SDS_P1;SDS_P2;PMS_P1;PMS_P2;Temp;Humidity;BMP_temperature;BMP_pressure;BME280_temperature;BME280_humidity;BME280_pressure;Samples;Min_cycle;Max_cycle;Signal;HPM_P1;HPM_P2
2021/03/14 00:00:25;;;;;;;8.17;2.50;;;6.30;99.90;;;;;;5073107;28;20478;-67
2021/03/14 00:02:52;;;;;;;10.27;1.73;;;6.30;99.90;;;;;;5073177;28;20490;-64
2021/03/14 00:05:18;;;;;;;10.60;1.93;;;6.30;99.90;;;;;;5073275;28;20462;-64
2021/03/14 00:07:45;;;;;;;9.50;1.47;;;6.30;99.90;;;;;;5072477;28;20533;-65
2021/03/14 00:10:13;;;;;;;7.57;1.50;;;6.30;99.90;;;;;;5073046;28;20991;-64
2021/03/14 00:12:40;;;;;;;8.03;1.80;;;6.20;99.90;;;;;;5077920;28;20480;-65
2021/03/14 00:15:08;;;;;;;8.77;1.63;;;6.20;99.90;;;;;;5078329;28;20472;-65
2021/03/14 00:17:35;;;;;;;8.23;1.60;;;6.20;99.90;;;;;;5072321;28;20475;-65
2021/03/14 00:20:01;;;;;;;9.43;1.50;;;6.20;99.90;;;;;;5072753;28;20526;-65
2021/03/14 00:22:28;;;;;;;15.03;2.00;;;6.10;99.90;;;;;;5065448;28;21058;-65
2021/03/14 00:24:54;;;;;;;11.97;1.90;;;6.10;99.90;;;;;;5071488;28;20583;-66
2021/03/14 00:27:21;;;;;;;11.80;1.67;;;6.10;99.90;;;;;;5079019;28;20458;-65
2021/03/14 00:29:48;;;;;;;8.00;1.43;;;6.10;99.90;;;;;;5063231;28;20557;-65
2021/03/14 00:32:14;;;;;;;8.70;1.47;;;6.00;99.90;;;;;;5072345;28;20536;-65
2021/03/14 00:34:41;;;;;;;9.10;1.50;;;6.00;99.90;;;;;;5072289;28;20613;-67
2021/03/14 00:37:08;;;;;;;13.90;3.13;;;5.90;99.90;;;;;;5070898;28;20535;-64
2021/03/14 00:39:34;;;;;;;9.53;1.67;;;5.80;99.90;;;;;;5071556;28;20546;-64
2021/03/14 00:42:01;;;;;;;12.37;1.97;;;5.70;99.90;;;;;;5083438;28;21013;-65
2021/03/14 00:44:28;;;;;;;7.70;1.70;;;5.70;99.90;;;;;;5065221;28;20534;-65
2021/03/14 00:46:55;;;;;;;7.33;1.97;;;5.70;99.90;;;;;;5079265;28;20476;-64
2021/03/14 00:49:22;;;;;;;8.93;2.00;;;5.60;99.90;;;;;;5090636;28;20489;-66
2021/03/14 00:51:49;;;;;;;12.03;2.20;;;5.50;99.90;;;;;;5077795;28;20950;-65
2021/03/14 00:54:15;;;;;;;11.53;2.10;;;5.60;99.90;;;;;;5074076;28;20485;-65
2021/03/14 00:56:42;;;;;;;8.80;1.80;;;5.60;99.90;;;;;;5082226;28;20878;-64
2021/03/14 00:59:08;;;;;;;10.53;2.20;;;5.50;99.90;;;;;;5081722;28;20457;-65
2021/03/14 01:01:36;;;;;;;12.80;2.20;;;5.40;99.90;;;;;;5080906;28;20853;-67
2021/03/14 01:04:03;;;;;;;10.37;2.70;;;5.40;99.90;;;;;;5085818;28;20589;-64
2021/03/14 01:06:29;;;;;;;13.43;2.00;;;5.40;99.90;;;;;;5083060;28;20486;-65
2021/03/14 01:08:55;;;;;;;10.97;2.30;;;5.30;99.90;;;;;;5084298;28;20463;-65
2021/03/14 01:11:22;;;;;;;8.73;2.33;;;5.30;99.90;;;;;;5070844;28;20441;-65
2021/03/14 01:13:48;;;;;;;9.80;1.90;;;5.40;99.90;;;;;;5072109;28;21028;-66
2021/03/14 01:16:15;;;;;;;20.80;2.63;;;5.40;99.90;;;;;;5071405;28;20845;-65
2021/03/14 01:18:42;;;;;;;11.17;2.10;;;5.40;99.90;;;;;;5071752;28;20524;-65
2021/03/14 01:21:09;;;;;;;13.47;2.47;;;5.40;99.90;;;;;;5070885;28;20454;-68
2021/03/14 01:23:35;;;;;;;9.50;2.40;;;5.50;99.90;;;;;;5071938;28;20475;-65
2021/03/14 01:26:02;;;;;;;15.60;2.50;;;5.50;99.90;;;;;;5070722;28;21868;-66
2021/03/14 01:28:28;;;;;;;9.90;1.80;;;5.50;99.90;;;;;;5072130;28;20816;-65
2021/03/14 01:30:54;;;;;;;9.63;2.30;;;5.50;99.90;;;;;;5071008;28;20580;-67
2021/03/14 01:33:21;;;;;;;9.63;2.30;;;5.40;99.90;;;;;;5072418;28;20443;-65
2021/03/14 01:35:48;;;;;;;8.50;2.30;;;5.50;99.90;;;;;;5071038;28;20566;-65
2021/03/14 01:38:14;;;;;;;14.30;2.17;;;5.50;99.90;;;;;;5071645;28;20949;-67
2021/03/14 01:40:41;;;;;;;13.30;2.10;;;5.50;99.90;;;;;;5071822;28;20804;-64
2021/03/14 01:43:07;;;;;;;9.63;2.10;;;5.50;99.90;;;;;;5071327;28;20450;-65
2021/03/14 01:45:34;;;;;;;11.40;1.93;;;5.60;99.90;;;;;;5071789;28;20449;-64
2021/03/14 01:48:06;;;;;;;11.93;2.87;;;5.60;99.90;;;;;;5071399;28;20533;-68
2021/03/14 01:50:33;;;;;;;9.60;2.10;;;5.60;99.90;;;;;;5071976;28;20455;-66
2021/03/14 01:53:00;;;;;;;8.20;1.87;;;5.70;99.90;;;;;;5071841;28;20861;-65
2021/03/14 01:55:27;;;;;;;9.53;2.40;;;5.70;99.90;;;;;;5071463;28;20492;-69
2021/03/14 01:57:54;;;;;;;8.27;1.87;;;5.70;99.90;;;;;;5071313;28;20452;-65
2021/03/14 02:00:23;;;;;;;8.83;1.83;;;5.70;99.90;;;;;;5071942;28;20534;-65
2021/03/14 02:02:49;;;;;;;11.10;2.03;;;5.70;99.90;;;;;;5075966;28;20503;-66
2021/03/14 02:05:19;;;;;;;12.00;2.60;;;5.80;99.90;;;;;;5083902;28;20440;-65
2021/03/14 02:07:48;;;;;;;12.03;2.07;;;5.80;99.90;;;;;;5082470;28;20901;-65
2021/03/14 02:10:18;;;;;;;14.07;2.30;;;5.80;99.90;;;;;;5071591;28;20536;-65
2021/03/14 02:12:48;;;;;;;8.43;2.23;;;5.80;99.90;;;;;;5079616;28;20921;-65
2021/03/14 02:15:15;;;;;;;8.20;1.87;;;5.90;99.90;;;;;;5091548;28;20580;-65
2021/03/14 02:17:43;;;;;;;14.30;2.57;;;5.90;99.90;;;;;;5075212;28;20540;-65
2021/03/14 02:20:12;;;;;;;10.20;2.27;;;5.90;99.90;;;;;;5071234;28;20529;-67
2021/03/14 02:22:42;;;;;;;12.30;2.43;;;5.80;99.90;;;;;;5071173;28;20449;-65
2021/03/14 02:25:14;;;;;;;9.60;2.23;;;5.80;99.90;;;;;;5071696;28;20458;-65
2021/03/14 02:27:43;;;;;;;12.90;3.00;;;5.80;99.90;;;;;;5070352;28;20472;-65
2021/03/14 02:30:12;;;;;;;11.47;2.40;;;5.80;99.90;;;;;;5071758;28;20538;-68
2021/03/14 02:32:40;;;;;;;14.70;2.77;;;5.80;99.90;;;;;;5071141;28;20529;-64
2021/03/14 02:35:08;;;;;;;11.30;2.40;;;5.80;99.90;;;;;;5071700;28;20498;-65
2021/03/14 02:37:37;;;;;;;9.30;2.30;;;5.80;99.90;;;;;;5071112;28;20871;-64
2021/03/14 02:40:05;;;;;;;10.87;2.37;;;5.80;99.90;;;;;;5071248;28;20539;-65
2021/03/14 02:42:35;;;;;;;11.70;2.53;;;5.80;99.90;;;;;;5071209;28;20446;-65
2021/03/14 02:45:04;;;;;;;11.30;2.57;;;5.80;99.90;;;;;;5073530;28;20540;-65
2021/03/14 02:47:31;;;;;;;15.10;2.80;;;5.80;99.90;;;;;;5082108;28;20537;-65
2021/03/14 02:49:58;;;;;;;11.27;3.00;;;5.80;99.90;;;;;;5088673;28;20448;-67
2021/03/14 02:52:26;;;;;;;13.73;3.97;;;5.80;99.90;;;;;;5091976;28;20430;-69
2021/03/14 02:54:55;;;;;;;10.83;4.30;;;5.70;99.90;;;;;;5094364;28;20924;-65
2021/03/14 02:57:21;;;;;;;12.50;3.40;;;5.70;99.90;;;;;;5073594;28;20533;-65
2021/03/14 02:59:49;;;;;;;12.53;2.90;;;5.60;99.90;;;;;;5074394;28;20469;-68
2021/03/14 03:02:17;;;;;;;12.33;3.30;;;5.60;99.90;;;;;;5074461;28;20478;-65
2021/03/14 03:04:44;;;;;;;11.20;3.60;;;5.60;99.90;;;;;;5074407;28;20447;-64
2021/03/14 03:07:14;;;;;;;10.93;3.57;;;5.60;99.90;;;;;;5074074;28;20526;-66
2021/03/14 03:09:41;;;;;;;16.20;3.83;;;5.50;99.90;;;;;;5074144;28;20518;-65
2021/03/14 03:12:10;;;;;;;14.07;4.20;;;5.50;99.90;;;;;;5074751;28;20843;-65
2021/03/14 03:14:37;;;;;;;16.23;3.37;;;5.50;99.90;;;;;;5073899;28;20473;-65
2021/03/14 03:17:04;;;;;;;15.17;4.10;;;5.60;99.90;;;;;;5073990;28;20798;-67
2021/03/14 03:19:32;;;;;;;13.10;3.53;;;5.50;99.90;;;;;;5074127;28;20537;-65
2021/03/14 03:21:58;;;;;;;10.47;3.40;;;5.40;99.90;;;;;;5073781;28;20462;-65
2021/03/14 03:24:25;;;;;;;15.77;3.80;;;5.50;99.90;;;;;;5074168;28;20827;-67
2021/03/14 03:26:51;;;;;;;12.00;3.67;;;5.40;99.90;;;;;;5077106;28;20458;-65
2021/03/14 03:29:19;;;;;;;13.50;3.10;;;5.40;99.90;;;;;;5086407;28;20533;-65
2021/03/14 03:31:47;;;;;;;10.23;3.60;;;5.40;99.90;;;;;;5083153;28;20463;-67
2021/03/14 03:34:13;;;;;;;13.67;3.37;;;5.40;99.90;;;;;;5073255;28;20519;-64
2021/03/14 03:36:42;;;;;;;13.20;3.47;;;5.40;99.90;;;;;;5074040;28;20530;-65
2021/03/14 03:39:10;;;;;;;15.37;3.73;;;5.40;99.90;;;;;;5073780;28;20574;-65
2021/03/14 03:41:44;;;;;;;11.57;3.30;;;5.40;99.90;;;;;;5073723;28;20507;-66
2021/03/14 03:44:11;;;;;;;10.90;3.30;;;5.40;99.90;;;;;;5073635;28;20535;-65
2021/03/14 03:46:40;;;;;;;13.53;3.33;;;5.40;99.90;;;;;;5073884;28;20542;-65
2021/03/14 03:49:08;;;;;;;10.70;3.17;;;5.40;99.90;;;;;;5073641;28;20446;-64
2021/03/14 03:51:36;;;;;;;9.47;3.50;;;5.40;99.90;;;;;;5074963;28;20853;-65
2021/03/14 03:54:05;;;;;;;11.67;3.37;;;5.40;99.90;;;;;;5073860;28;20544;-65
2021/03/14 03:56:32;;;;;;;12.43;3.43;;;5.40;99.90;;;;;;5072843;28;20481;-65
2021/03/14 03:59:02;;;;;;;16.13;3.07;;;5.40;99.90;;;;;;5073678;28;20890;-64
2021/03/14 04:01:29;;;;;;;10.67;3.27;;;5.40;99.90;;;;;;5073374;28;20533;-64
2021/03/14 04:03:56;;;;;;;8.60;2.63;;;5.40;99.90;;;;;;5073304;28;20536;-68
2021/03/14 04:06:24;;;;;;;11.07;3.70;;;5.40;99.90;;;;;;5072932;28;20536;-65
2021/03/14 04:08:51;;;;;;;12.40;3.30;;;5.40;99.90;;;;;;5073222;28;20449;-64
2021/03/14 04:11:20;;;;;;;16.07;3.37;;;5.40;99.90;;;;;;5073271;28;20902;-65
2021/03/14 04:13:47;;;;;;;14.90;3.20;;;5.40;99.90;;;;;;5073373;28;20438;-68
2021/03/14 04:16:15;;;;;;;12.20;3.10;;;5.40;99.90;;;;;;5072271;28;20567;-65
2021/03/14 04:18:44;;;;;;;12.40;2.53;;;5.40;99.90;;;;;;5073327;28;20515;-66
2021/03/14 04:21:15;;;;;;;14.30;4.00;;;5.40;99.90;;;;;;5072541;28;20539;-65
2021/03/14 04:23:44;;;;;;;15.43;3.10;;;5.40;99.90;;;;;;5073230;28;20445;-65
2021/03/14 04:26:12;;;;;;;10.87;3.30;;;5.40;99.90;;;;;;5072511;28;20870;-66
2021/03/14 04:28:41;;;;;;;10.00;2.30;;;5.40;99.90;;;;;;5072931;28;20643;-65
2021/03/14 04:31:09;;;;;;;11.87;3.07;;;5.50;99.90;;;;;;5072590;28;20446;-65
2021/03/14 04:33:36;;;;;;;13.63;3.17;;;5.50;99.90;;;;;;5072794;28;20443;-67
2021/03/14 04:36:04;;;;;;;10.37;2.77;;;5.50;99.90;;;;;;5072435;28;20483;-66
2021/03/14 04:38:31;;;;;;;14.90;4.30;;;5.50;99.90;;;;;;5072606;28;20870;-67
2021/03/14 04:40:59;;;;;;;9.67;2.07;;;5.50;99.90;;;;;;5072333;28;20460;-65
2021/03/14 04:43:27;;;;;;;14.70;3.20;;;5.50;99.90;;;;;;5073025;28;20467;-64
2021/03/14 04:45:55;;;;;;;11.13;2.47;;;5.50;99.90;;;;;;5071992;28;20480;-64
2021/03/14 04:48:23;;;;;;;14.33;2.73;;;5.50;99.90;;;;;;5072860;28;20492;-65
2021/03/14 04:50:50;;;;;;;10.37;2.60;;;5.50;99.90;;;;;;5072037;28;20436;-64
2021/03/14 04:53:20;;;;;;;10.57;2.30;;;5.50;99.90;;;;;;5072528;28;20443;-65
2021/03/14 04:55:48;;;;;;;11.23;2.70;;;5.50;99.90;;;;;;5071832;28;20902;-65
2021/03/14 04:58:18;;;;;;;17.67;2.57;;;5.40;99.90;;;;;;5072460;28;20526;-64
2021/03/14 05:00:44;;;;;;;17.53;2.83;;;5.50;99.90;;;;;;5071857;28;20459;-68
2021/03/14 05:03:13;;;;;;;13.23;2.63;;;5.40;99.90;;;;;;5072119;28;20827;-65
2021/03/14 05:05:42;;;;;;;15.70;2.70;;;5.30;99.90;;;;;;5072163;28;20512;-65
2021/03/14 05:08:10;;;;;;;14.83;3.77;;;5.40;99.90;;;;;;5071522;28;20484;-67
2021/03/14 05:10:37;;;;;;;13.87;3.97;;;5.30;99.90;;;;;;5072399;28;20471;-65
2021/03/14 05:13:04;;;;;;;14.50;3.57;;;5.40;99.90;;;;;;5071425;28;20542;-65
2021/03/14 05:15:31;;;;;;;14.67;3.33;;;5.40;99.90;;;;;;5072001;28;20516;-65
2021/03/14 05:17:57;;;;;;;10.40;2.33;;;5.40;99.90;;;;;;5071827;28;20477;-64
2021/03/14 05:20:26;;;;;;;12.60;3.07;;;5.40;99.90;;;;;;5072029;28;20405;-64
2021/03/14 05:22:56;;;;;;;9.60;2.83;;;5.40;99.90;;;;;;5071903;28;20883;-65
2021/03/14 05:25:23;;;;;;;10.43;3.10;;;5.30;99.90;;;;;;5072341;28;20456;-65
2021/03/14 05:27:51;;;;;;;14.80;3.10;;;5.30;99.90;;;;;;5071644;28;20441;-64
2021/03/14 05:30:23;;;;;;;10.97;3.20;;;5.30;99.90;;;;;;5072123;28;20527;-65
2021/03/14 05:32:51;;;;;;;13.77;4.07;;;5.20;99.90;;;;;;5071697;28;20445;-67
2021/03/14 05:35:18;;;;;;;11.00;2.90;;;5.20;99.90;;;;;;5072398;28;20570;-65
2021/03/14 05:37:46;;;;;;;13.60;4.00;;;5.20;99.90;;;;;;5071752;28;20440;-65
2021/03/14 05:40:14;;;;;;;14.20;3.73;;;5.10;99.90;;;;;;5071846;28;20477;-65
2021/03/14 05:42:40;;;;;;;12.33;3.73;;;5.10;99.90;;;;;;5071908;28;20876;-65
2021/03/14 05:45:09;;;;;;;11.50;3.73;;;5.20;99.90;;;;;;5071701;28;20457;-65
2021/03/14 05:47:36;;;;;;;16.60;5.10;;;5.20;99.90;;;;;;5071178;28;20449;-67
2021/03/14 05:50:04;;;;;;;13.10;4.70;;;5.30;99.90;;;;;;5072263;28;20456;-67
2021/03/14 05:52:31;;;;;;;11.80;4.40;;;5.30;99.90;;;;;;5071662;28;20482;-65
2021/03/14 05:54:59;;;;;;;12.73;3.70;;;5.40;99.90;;;;;;5071684;28;20568;-65
2021/03/14 05:57:26;;;;;;;14.68;4.32;;;5.30;99.90;;;;;;5069954;28;20520;-65
2021/03/14 05:59:53;;;;;;;12.13;4.20;;;5.40;99.90;;;;;;5071691;28;20211;-65
2021/03/14 06:02:21;;;;;;;12.07;4.30;;;5.40;99.90;;;;;;5071471;28;20446;-65
2021/03/14 06:04:48;;;;;;;11.20;4.50;;;5.40;99.90;;;;;;5070415;28;20959;-65
2021/03/14 06:07:15;;;;;;;13.87;4.17;;;5.50;99.90;;;;;;5071502;28;20438;-66
2021/03/14 06:09:41;;;;;;;18.73;5.00;;;5.60;99.90;;;;;;5070855;28;20440;-65
2021/03/14 06:12:10;;;;;;;15.07;4.03;;;5.60;99.90;;;;;;5070907;28;20557;-65
2021/03/14 06:14:38;;;;;;;15.00;4.40;;;5.60;99.90;;;;;;5071439;28;20445;-65
2021/03/14 06:17:04;;;;;;;10.70;2.17;;;5.50;99.90;;;;;;5078983;28;20487;-50
2021/03/14 06:19:31;;;;;;;13.10;3.50;;;6.30;99.90;;;;;;5075228;28;20485;-56
2021/03/14 06:22:22;;;;;;;13.73;4.60;;;6.50;99.90;;;;;;5074212;28;20463;-66
2021/03/14 06:24:49;;;;;;;18.07;5.00;;;6.30;99.90;;;;;;5076925;28;20821;-65
2021/03/14 06:27:34;;;;;;;11.23;3.63;;;6.10;99.90;;;;;;5075048;28;20446;-65
2021/03/14 06:30:01;;;;;;;13.83;4.67;;;5.90;99.90;;;;;;5072852;28;20517;-67
2021/03/14 06:32:28;;;;;;;18.50;4.47;;;5.80;99.90;;;;;;5074912;28;20499;-64
2021/03/14 06:35:18;;;;;;;14.70;4.63;;;5.80;99.90;;;;;;5074115;28;20573;-65
2021/03/14 06:37:45;;;;;;;19.60;4.33;;;5.60;99.90;;;;;;5072354;28;20807;-66
2021/03/14 06:40:14;;;;;;;20.30;4.83;;;5.70;99.90;;;;;;5075138;28;20448;-67
2021/03/14 06:42:42;;;;;;;14.70;4.50;;;5.60;99.90;;;;;;5072348;28;20802;-66
2021/03/14 06:45:11;;;;;;;25.40;5.37;;;5.70;99.90;;;;;;5072875;28;20711;-66
2021/03/14 06:47:43;;;;;;;13.73;4.10;;;5.80;99.90;;;;;;5080276;28;20548;-66
2021/03/14 06:50:17;;;;;;;13.23;4.33;;;5.70;99.90;;;;;;5079631;28;20471;-68
2021/03/14 06:53:06;;;;;;;15.63;4.50;;;5.70;99.90;;;;;;5077429;28;20465;-68
2021/03/14 06:55:33;;;;;;;13.37;4.10;;;5.80;99.90;;;;;;5087908;28;20568;-66
2021/03/14 06:58:23;;;;;;;15.63;4.20;;;5.80;99.90;;;;;;5082569;28;20722;-67
2021/03/14 07:01:09;;;;;;;12.10;4.90;;;5.70;99.90;;;;;;5080713;28;20536;-67
2021/03/14 07:03:37;;;;;;;23.10;6.70;;;5.60;99.90;;;;;;5076259;28;20501;-68
2021/03/14 07:06:21;;;;;;;12.70;5.00;;;5.80;99.90;;;;;;5078512;28;20539;-68
2021/03/14 07:08:49;;;;;;;22.20;5.63;;;5.80;99.90;;;;;;5083892;28;20463;-64
2021/03/14 07:11:34;;;;;;;18.50;5.97;;;5.90;99.90;;;;;;5091179;28;20436;-66
2021/03/14 07:14:04;;;;;;;13.10;5.03;;;5.90;99.90;;;;;;5077312;28;20438;-65
2021/03/14 07:16:44;;;;;;;24.53;5.50;;;5.80;99.90;;;;;;5079891;28;20805;-66
2021/03/14 07:19:15;;;;;;;14.70;5.23;;;5.80;99.90;;;;;;5078742;28;20462;-66
2021/03/14 07:21:41;;;;;;;15.90;5.50;;;5.80;99.90;;;;;;5082137;28;20877;-67
2021/03/14 07:24:12;;;;;;;14.23;5.27;;;5.70;99.90;;;;;;5081578;28;20573;-65
2021/03/14 07:26:44;;;;;;;16.37;5.53;;;5.70;99.90;;;;;;5082946;28;20454;-64
2021/03/14 07:29:11;;;;;;;18.30;5.47;;;5.80;99.90;;;;;;5068706;28;21017;-67
2021/03/14 07:31:38;;;;;;;14.33;5.00;;;5.80;99.90;;;;;;5076763;28;20545;-66
2021/03/14 07:34:06;;;;;;;14.40;6.23;;;5.80;99.90;;;;;;5075790;28;20542;-65
2021/03/14 07:36:33;;;;;;;15.43;5.20;;;5.90;99.90;;;;;;5090098;28;20491;-65
2021/03/14 07:39:01;;;;;;;12.80;5.30;;;5.90;99.90;;;;;;5078917;28;20478;-66
2021/03/14 07:41:29;;;;;;;11.57;4.90;;;5.90;99.90;;;;;;5075855;28;20943;-68
2021/03/14 07:43:56;;;;;;;14.40;6.33;;;5.90;99.90;;;;;;5091303;28;20445;-67
2021/03/14 07:46:25;;;;;;;17.47;5.50;;;5.80;99.90;;;;;;5081704;28;20815;-65
2021/03/14 07:48:53;;;;;;;14.27;6.63;;;5.80;99.90;;;;;;5078817;28;20443;-66
2021/03/14 07:51:22;;;;;;;22.03;6.80;;;5.60;99.90;;;;;;5080721;28;20450;-67
2021/03/14 07:53:51;;;;;;;13.23;6.10;;;5.50;99.90;;;;;;5078421;28;20508;-66
2021/03/14 07:56:18;;;;;;;15.23;5.87;;;5.30;99.90;;;;;;5077405;28;20607;-66
2021/03/14 07:58:44;;;;;;;18.37;6.90;;;5.40;99.90;;;;;;5083491;28;20480;-66
2021/03/14 08:01:25;;;;;;;17.33;6.33;;;5.40;99.90;;;;;;5093514;28;21008;-66
2021/03/14 08:03:52;;;;;;;15.93;7.10;;;5.30;99.90;;;;;;5078182;28;20528;-64
2021/03/14 08:06:49;;;;;;;10.90;6.30;;;5.30;99.90;;;;;;5083743;28;20456;-68
2021/03/14 08:09:43;;;;;;;13.23;7.13;;;5.20;99.90;;;;;;5079538;28;20556;-65
2021/03/14 08:12:34;;;;;;;15.47;7.77;;;5.10;99.90;;;;;;5073878;28;20986;-65
2021/03/14 08:15:01;;;;;;;23.23;8.20;;;5.00;99.90;;;;;;5079054;28;20554;-65
2021/03/14 08:17:34;;;;;;;36.83;18.60;;;5.00;99.90;;;;;;5074359;28;20445;-64
2021/03/14 08:20:01;;;;;;;16.67;8.37;;;4.90;99.90;;;;;;5086149;28;20838;-65
2021/03/14 08:22:47;;;;;;;20.13;7.47;;;4.60;99.90;;;;;;5073279;28;20524;-65
2021/03/14 08:25:19;;;;;;;17.97;8.53;;;4.60;99.90;;;;;;5074861;28;20409;-66
2021/03/14 08:27:46;;;;;;;13.40;7.87;;;4.60;99.90;;;;;;5084341;28;20493;-64
2021/03/14 08:30:42;;;;;;;14.17;8.40;;;4.70;99.90;;;;;;5092552;28;20446;-66
2021/03/14 08:33:47;;;;;;;15.20;7.07;;;4.80;99.90;;;;;;5052700;28;20450;-63
2021/03/14 08:36:14;;;;;;;9.10;4.97;;;4.70;99.90;;;;;;5054580;28;20514;-67
2021/03/14 08:38:49;;;;;;;11.37;5.03;;;4.40;99.90;;;;;;5080495;28;20538;-65
2021/03/14 08:41:28;;;;;;;11.10;4.60;;;4.20;99.90;;;;;;5073120;28;20454;-64
2021/03/14 08:44:00;;;;;;;13.30;6.77;;;4.20;99.90;;;;;;5066536;28;20521;-63
2021/03/14 08:47:06;;;;;;;12.67;6.80;;;4.10;99.90;;;;;;5071054;28;20452;-64
2021/03/14 08:49:39;;;;;;;12.07;7.40;;;4.10;99.90;;;;;;5082277;28;20909;-66
2021/03/14 08:52:09;;;;;;;12.93;8.50;;;4.10;99.90;;;;;;5076664;28;20543;-67
2021/03/14 08:54:37;;;;;;;16.47;9.70;;;4.10;99.90;;;;;;5070457;28;21024;-66
2021/03/14 08:57:06;;;;;;;16.90;9.40;;;4.00;99.90;;;;;;5062001;28;20449;-65
2021/03/14 08:59:32;;;;;;;13.70;8.67;;;4.00;99.90;;;;;;5072431;28;21034;-64
2021/03/14 09:02:00;;;;;;;13.40;7.93;;;4.10;99.90;;;;;;5072007;28;20522;-64
2021/03/14 09:04:29;;;;;;;14.87;8.50;;;4.10;99.90;;;;;;5071580;28;20477;-65
2021/03/14 09:07:07;;;;;;;15.13;8.80;;;4.20;99.90;;;;;;5071936;28;20785;-65
2021/03/14 09:09:34;;;;;;;15.63;7.93;;;4.20;99.90;;;;;;5070886;28;20544;-66
2021/03/14 09:12:06;;;;;;;15.70;8.30;;;4.30;99.90;;;;;;5072388;28;20846;-64
2021/03/14 09:14:35;;;;;;;13.80;8.60;;;4.20;99.90;;;;;;5071443;28;20467;-64
2021/03/14 09:17:05;;;;;;;14.13;8.30;;;4.40;99.90;;;;;;5071796;28;20508;-63
2021/03/14 09:19:35;;;;;;;16.17;9.67;;;4.50;99.90;;;;;;5072378;28;20829;-63
2021/03/14 09:22:04;;;;;;;18.63;8.70;;;4.60;99.90;;;;;;5075180;28;20449;-65
2021/03/14 09:24:34;;;;;;;14.73;9.47;;;4.70;99.90;;;;;;5076676;28;20520;-65
2021/03/14 09:27:03;;;;;;;16.37;9.33;;;4.80;99.90;;;;;;5073895;28;20546;-65
2021/03/14 09:29:40;;;;;;;16.50;9.63;;;4.90;99.90;;;;;;5073503;28;20809;-65
2021/03/14 09:32:25;;;;;;;21.90;9.43;;;5.10;99.90;;;;;;5074202;28;20947;-66
2021/03/14 09:35:08;;;;;;;19.90;11.07;;;5.00;99.90;;;;;;5092368;28;20524;-63
2021/03/14 09:37:34;;;;;;;21.57;11.00;;;5.10;99.90;;;;;;5079032;28;20443;-64
2021/03/14 09:40:19;;;;;;;21.67;11.10;;;5.30;99.90;;;;;;5071953;28;20495;-65
2021/03/14 09:42:50;;;;;;;17.67;11.30;;;5.30;99.90;;;;;;5070378;28;20494;-64
2021/03/14 09:45:18;;;;;;;18.33;10.50;;;5.40;99.90;;;;;;5066633;28;20452;-66
2021/03/14 09:48:00;;;;;;;18.27;11.00;;;5.50;99.90;;;;;;5070459;28;20540;-65
2021/03/14 09:50:26;;;;;;;20.93;12.43;;;5.50;99.90;;;;;;5066638;28;20955;-65
2021/03/14 09:52:53;;;;;;;20.03;12.83;;;5.40;99.90;;;;;;5062848;28;20451;-65
2021/03/14 09:55:24;;;;;;;20.23;10.60;;;5.50;99.90;;;;;;5069038;28;20553;-65
2021/03/14 09:57:51;;;;;;;18.67;11.70;;;5.50;99.90;;;;;;5070012;28;20437;-64
2021/03/14 10:00:22;;;;;;;19.97;12.03;;;5.70;99.90;;;;;;5074312;28;20973;-65
2021/03/14 10:02:49;;;;;;;18.60;12.93;;;5.70;99.90;;;;;;5075679;28;20978;-65
2021/03/14 10:05:15;;;;;;;24.23;12.80;;;5.70;99.90;;;;;;5075441;28;20533;-67
2021/03/14 10:07:42;;;;;;;22.50;13.17;;;5.70;99.90;;;;;;5073716;28;20860;-65
2021/03/14 10:10:10;;;;;;;17.03;11.90;;;5.70;99.90;;;;;;5074464;28;20813;-66
2021/03/14 10:12:38;;;;;;;20.20;14.73;;;5.60;99.90;;;;;;5085894;28;20476;-64
2021/03/14 10:15:06;;;;;;;22.70;14.73;;;5.40;99.90;;;;;;5080178;28;20884;-66
2021/03/14 10:17:34;;;;;;;21.83;15.43;;;5.50;99.90;;;;;;5084284;28;20532;-64
2021/03/14 10:20:01;;;;;;;22.97;16.50;;;5.50;99.90;;;;;;5073528;28;20456;-64
2021/03/14 10:22:32;;;;;;;25.37;14.80;;;5.80;99.90;;;;;;5078412;28;20547;-65
2021/03/14 10:24:58;;;;;;;25.10;15.87;;;5.80;99.90;;;;;;5081101;28;20535;-65
2021/03/14 10:27:27;;;;;;;23.53;15.00;;;5.80;99.90;;;;;;5074379;28;20489;-64
2021/03/14 10:29:58;;;;;;;26.80;15.63;;;5.50;99.90;;;;;;5070989;28;20446;-64
2021/03/14 10:32:27;;;;;;;27.00;15.73;;;5.50;99.90;;;;;;5070155;28;20498;-63
2021/03/14 10:34:56;;;;;;;19.50;12.10;;;5.60;99.90;;;;;;5079630;28;20478;-66
2021/03/14 10:37:28;;;;;;;22.57;12.80;;;5.90;99.90;;;;;;5098203;28;20445;-65
2021/03/14 10:39:58;;;;;;;20.70;12.23;;;6.00;99.90;;;;;;5074180;28;20448;-66
2021/03/14 10:42:36;;;;;;;18.43;11.67;;;6.40;99.90;;;;;;5073889;28;20458;-64
2021/03/14 10:45:15;;;;;;;20.43;12.27;;;6.40;99.90;;;;;;5074188;28;20864;-63
2021/03/14 10:47:43;;;;;;;19.57;12.20;;;6.30;99.90;;;;;;5076533;28;20461;-65
2021/03/14 10:50:17;;;;;;;20.03;12.57;;;6.40;99.90;;;;;;5078908;28;20461;-65
2021/03/14 10:52:44;;;;;;;19.00;12.50;;;6.60;99.90;;;;;;5073869;28;20588;-64
2021/03/14 10:55:35;;;;;;;24.03;12.00;;;7.30;99.90;;;;;;5074388;28;20738;-65
2021/03/14 10:58:06;;;;;;;21.60;12.93;;;8.10;99.90;;;;;;5074319;28;20446;-66
2021/03/14 11:00:34;;;;;;;17.90;12.33;;;8.10;99.90;;;;;;5080088;28;20461;-64
2021/03/14 11:03:09;;;;;;;20.63;12.70;;;7.90;99.90;;;;;;5085044;28;20796;-64
2021/03/14 11:05:36;;;;;;;18.90;11.33;;;8.20;99.90;;;;;;5094610;28;20464;-65
2021/03/14 11:08:03;;;;;;;17.93;11.37;;;8.10;99.90;;;;;;5093956;28;20489;-64
2021/03/14 11:10:30;;;;;;;19.30;12.10;;;8.00;99.90;;;;;;5093269;28;20446;-65
2021/03/14 11:12:56;;;;;;;18.57;12.40;;;7.80;99.90;;;;;;5093915;28;20778;-66
2021/03/14 11:15:27;;;;;;;21.83;11.57;;;7.70;99.90;;;;;;5093731;28;20527;-64
2021/03/14 11:17:55;;;;;;;20.27;10.47;;;7.60;99.90;;;;;;5085274;28;20441;-64
2021/03/14 11:20:24;;;;;;;20.23;10.90;;;7.50;99.90;;;;;;5073798;28;20462;-64
2021/03/14 11:22:51;;;;;;;22.93;11.97;;;7.60;99.90;;;;;;5073323;28;20504;-65
2021/03/14 11:25:19;;;;;;;21.40;10.80;;;7.70;99.90;;;;;;5073623;28;20482;-67
2021/03/14 11:27:45;;;;;;;16.20;11.10;;;7.60;99.90;;;;;;5073307;28;20542;-66
2021/03/14 11:30:13;;;;;;;17.37;11.57;;;7.90;99.90;;;;;;5082938;28;20457;-64
2021/03/14 11:32:39;;;;;;;18.20;13.90;;;8.10;99.90;;;;;;5080800;28;20483;-66
2021/03/14 11:35:08;;;;;;;20.13;13.23;;;8.00;99.90;;;;;;5073298;28;20482;-68
2021/03/14 11:37:35;;;;;;;19.33;12.77;;;7.90;99.90;;;;;;5074418;28;20549;-65
2021/03/14 11:40:03;;;;;;;17.57;12.27;;;8.00;99.90;;;;;;5084981;28;20447;-64
2021/03/14 11:42:29;;;;;;;19.70;13.30;;;7.80;99.90;;;;;;5091240;28;20446;-65
2021/03/14 11:44:56;;;;;;;21.63;15.60;;;7.80;99.90;;;;;;5091927;28;20913;-65
2021/03/14 11:47:23;;;;;;;21.90;15.73;;;7.60;99.90;;;;;;5075908;28;20450;-66
2021/03/14 11:49:50;;;;;;;20.63;14.70;;;7.50;99.90;;;;;;5072579;28;20536;-65
2021/03/14 11:52:18;;;;;;;20.87;14.60;;;7.40;99.90;;;;;;5073331;28;20534;-64
2021/03/14 11:54:44;;;;;;;22.03;14.40;;;7.50;99.90;;;;;;5073627;28;20574;-67
2021/03/14 11:57:11;;;;;;;20.67;14.50;;;7.50;99.90;;;;;;5067333;28;20976;-65
2021/03/14 11:59:38;;;;;;;20.70;13.97;;;7.70;99.90;;;;;;5073208;28;20443;-64
2021/03/14 12:02:04;;;;;;;19.53;14.60;;;7.90;99.90;;;;;;5079740;28;20923;-66
2021/03/14 12:04:31;;;;;;;19.57;12.57;;;8.10;99.90;;;;;;5080660;28;20538;-65
2021/03/14 12:06:57;;;;;;;18.30;12.17;;;8.40;99.90;;;;;;5072567;28;20478;-64
2021/03/14 12:09:25;;;;;;;22.17;12.97;;;8.80;99.90;;;;;;5072760;28;20538;-64
2021/03/14 12:11:52;;;;;;;21.23;13.80;;;9.40;99.90;;;;;;5073099;28;20538;-64
2021/03/14 12:14:18;;;;;;;18.33;11.40;;;9.90;99.90;;;;;;5072813;28;20531;-63
2021/03/14 12:16:45;;;;;;;16.50;10.87;;;10.30;99.90;;;;;;5072387;28;20578;-65
2021/03/14 12:19:11;;;;;;;22.53;11.63;;;10.70;99.90;;;;;;5072746;28;20434;-65
2021/03/14 12:21:37;;;;;;;18.27;11.93;;;10.90;99.90;;;;;;5072586;28;20453;-64
2021/03/14 12:24:04;;;;;;;17.30;11.23;;;11.00;99.90;;;;;;5072804;28;20886;-66
2021/03/14 12:26:32;;;;;;;16.87;10.13;;;11.10;99.90;;;;;;5072222;28;20487;-66
2021/03/14 12:28:59;;;;;;;16.47;11.03;;;11.10;99.90;;;;;;5072736;28;20450;-65
2021/03/14 12:31:25;;;;;;;17.87;10.07;;;11.00;99.90;;;;;;5070380;28;20817;-68
2021/03/14 12:33:52;;;;;;;16.93;9.93;;;11.30;99.90;;;;;;5073852;28;20846;-65
2021/03/14 12:36:18;;;;;;;16.60;10.67;;;12.50;99.90;;;;;;5074090;28;20645;-67
2021/03/14 12:38:44;;;;;;;15.30;9.23;;;12.50;99.90;;;;;;5079991;28;20504;-66
2021/03/14 12:41:11;;;;;;;13.13;8.10;;;12.10;99.90;;;;;;5084110;28;20522;-66
2021/03/14 12:43:38;;;;;;;18.90;9.93;;;11.40;99.90;;;;;;5074330;28;20497;-66
2021/03/14 12:46:05;;;;;;;13.13;7.03;;;10.70;99.90;;;;;;5071818;28;20470;-66
2021/03/14 12:48:31;;;;;;;13.47;7.57;;;11.20;99.90;;;;;;5072390;28;20538;-64
2021/03/14 12:50:58;;;;;;;11.43;7.00;;;11.90;99.90;;;;;;5072166;28;20454;-66
2021/03/14 12:53:25;;;;;;;12.17;7.80;;;12.20;99.90;;;;;;5072767;28;20458;-65
2021/03/14 12:55:51;;;;;;;15.43;7.50;;;11.50;99.90;;;;;;5071599;28;20516;-66